createdAt,value
2019-01-26T00:01:16.999Z,0.40
2019-01-26T00:03:44.235Z,0.40
2019-01-26T00:06:11.474Z,0.50
2019-01-26T00:08:38.708Z,0.40
2019-01-26T00:11:05.988Z,0.50
2019-01-26T00:13:33.272Z,0.50
2019-01-26T00:16:00.530Z,0.60
2019-01-26T00:18:27.813Z,0.60
2019-01-26T00:20:55.039Z,0.60
2019-01-26T00:23:22.304Z,0.50
2019-01-26T00:25:49.575Z,0.50
2019-01-26T00:28:16.821Z,0.60
2019-01-26T00:30:44.068Z,0.60
2019-01-26T00:33:11.312Z,0.70
2019-01-26T00:35:38.721Z,0.60
2019-01-26T00:38:06.543Z,0.60
2019-01-26T00:40:33.895Z,0.60
2019-01-26T00:43:01.129Z,0.70
2019-01-26T00:45:28.490Z,0.60
2019-01-26T00:47:55.740Z,0.50
2019-01-26T00:50:22.982Z,0.60
2019-01-26T00:52:50.285Z,0.70
2019-01-26T00:55:17.784Z,0.60
2019-01-26T00:57:45.095Z,0.70
2019-01-26T01:00:13.594Z,0.70
2019-01-26T01:02:40.842Z,0.70
2019-01-26T01:05:09.257Z,0.80
2019-01-26T01:07:36.519Z,0.70
2019-01-26T01:10:04.867Z,0.70
2019-01-26T01:12:32.140Z,0.70
2019-01-26T01:14:59.367Z,0.70
2019-01-26T01:17:26.601Z,0.90
2019-01-26T01:19:53.843Z,0.70
2019-01-26T01:22:21.123Z,0.60
2019-01-26T01:24:48.474Z,0.80
2019-01-26T01:27:15.707Z,0.80
2019-01-26T01:29:42.953Z,0.80
2019-01-26T01:32:10.212Z,0.90
2019-01-26T01:34:37.471Z,0.90
2019-01-26T01:37:05.102Z,0.90
2019-01-26T01:39:32.471Z,0.80
2019-01-26T01:41:59.815Z,0.90
2019-01-26T01:44:27.055Z,0.80
2019-01-26T01:47:02.662Z,0.90
2019-01-26T01:49:29.902Z,0.90
2019-01-26T01:51:57.167Z,0.80
2019-01-26T01:54:24.397Z,0.90
2019-01-26T01:56:51.639Z,0.80
2019-01-26T01:59:18.900Z,0.80
2019-01-26T02:01:46.127Z,1.00
2019-01-26T02:04:13.520Z,1.00
2019-01-26T02:06:40.778Z,0.90
2019-01-26T02:09:08.212Z,1.00
2019-01-26T02:11:35.458Z,1.10
2019-01-26T02:14:02.740Z,1.10
2019-01-26T02:16:29.962Z,1.00
2019-01-26T02:18:57.215Z,1.10
2019-01-26T02:21:24.465Z,1.00
2019-01-26T02:23:51.782Z,1.20
2019-01-26T02:26:19.083Z,1.20
2019-01-26T02:28:46.339Z,1.10
2019-01-26T02:31:13.911Z,1.20
2019-01-26T02:33:41.654Z,1.20
2019-01-26T02:36:09.353Z,1.20
2019-01-26T02:38:37.337Z,1.20
2019-01-26T02:41:05.066Z,1.30
2019-01-26T02:43:32.947Z,1.20
2019-01-26T02:46:00.590Z,1.20
2019-01-26T02:48:28.401Z,1.20
2019-01-26T02:50:55.639Z,1.30
2019-01-26T02:53:22.902Z,1.30
2019-01-26T02:55:50.150Z,1.10
2019-01-26T02:58:17.441Z,1.20
2019-01-26T03:00:44.699Z,1.20
2019-01-26T03:03:11.935Z,1.20
2019-01-26T03:05:39.178Z,1.30
2019-01-26T03:08:06.444Z,1.30
2019-01-26T03:10:33.695Z,1.30
2019-01-26T03:13:00.974Z,1.40
2019-01-26T03:15:28.314Z,1.50
2019-01-26T03:17:55.549Z,1.40
2019-01-26T03:20:22.936Z,1.20
2019-01-26T03:22:50.312Z,1.20
2019-01-26T03:25:17.882Z,1.40
2019-01-26T03:27:45.123Z,1.30
2019-01-26T03:30:15.187Z,1.40
2019-01-26T03:32:42.480Z,1.20
2019-01-26T03:35:09.808Z,1.20
2019-01-26T03:37:37.069Z,1.40
2019-01-26T03:40:06.170Z,1.40
2019-01-26T03:42:33.735Z,1.20
2019-01-26T03:45:00.995Z,1.40
2019-01-26T03:47:29.026Z,1.30
2019-01-26T03:49:56.305Z,1.30
2019-01-26T03:52:23.549Z,1.30
2019-01-26T03:54:50.787Z,1.20
2019-01-26T03:57:18.089Z,1.40
2019-01-26T03:59:45.365Z,1.30
2019-01-26T04:02:12.635Z,1.30
2019-01-26T04:04:39.885Z,1.20
2019-01-26T04:07:07.139Z,1.20
2019-01-26T04:09:34.620Z,1.30
2019-01-26T04:12:01.889Z,1.30
2019-01-26T04:14:29.248Z,1.40
2019-01-26T04:16:56.929Z,1.40
2019-01-26T04:19:24.175Z,1.30
2019-01-26T04:21:51.445Z,1.40
2019-01-26T04:24:18.756Z,1.40
2019-01-26T04:26:46.008Z,1.60
2019-01-26T04:29:13.264Z,1.70
2019-01-26T04:31:40.944Z,1.70
2019-01-26T04:34:08.211Z,1.70
2019-01-26T04:36:35.472Z,1.70
2019-01-26T04:39:04.770Z,1.80
2019-01-26T04:41:32.009Z,1.80
2019-01-26T04:43:59.233Z,1.80
2019-01-26T04:46:26.483Z,1.80
2019-01-26T04:48:53.732Z,1.80
2019-01-26T04:51:20.967Z,1.90
2019-01-26T04:53:48.219Z,1.90
2019-01-26T04:56:15.452Z,1.90
2019-01-26T04:58:42.705Z,1.90
2019-01-26T05:01:09.953Z,1.90
2019-01-26T05:03:37.208Z,1.90
2019-01-26T05:06:04.642Z,1.80
2019-01-26T05:08:31.907Z,1.90
2019-01-26T05:10:59.130Z,1.80
2019-01-26T05:13:26.403Z,1.90
2019-01-26T05:15:53.651Z,1.90
2019-01-26T05:18:20.885Z,1.80
2019-01-26T05:20:48.215Z,1.70
2019-01-26T05:23:15.458Z,1.80
2019-01-26T05:25:42.683Z,1.70
2019-01-26T05:28:09.931Z,1.90
2019-01-26T05:30:37.188Z,1.90
2019-01-26T05:33:04.548Z,1.80
2019-01-26T05:35:31.789Z,1.90
2019-01-26T05:37:59.043Z,1.80
2019-01-26T05:40:26.301Z,1.80
2019-01-26T05:42:53.552Z,1.70
2019-01-26T05:45:21.581Z,1.80
2019-01-26T05:47:49.696Z,1.90
2019-01-26T05:50:18.901Z,1.80
2019-01-26T05:52:46.123Z,1.90
2019-01-26T05:55:13.463Z,1.90
2019-01-26T05:57:40.707Z,1.90
2019-01-26T06:00:11.052Z,1.90
2019-01-26T06:02:38.333Z,2.00
2019-01-26T06:05:06.437Z,1.90
2019-01-26T06:07:33.678Z,1.90
2019-01-26T06:10:00.912Z,1.90
2019-01-26T06:12:28.189Z,1.90
2019-01-26T06:14:55.546Z,1.90
2019-01-26T06:17:22.882Z,2.00
2019-01-26T06:19:50.159Z,2.00
2019-01-26T06:22:17.408Z,1.80
2019-01-26T06:24:44.659Z,2.00
2019-01-26T06:27:11.912Z,2.00
2019-01-26T06:29:39.175Z,2.00
2019-01-26T06:32:06.435Z,2.10
2019-01-26T06:34:33.704Z,2.00
2019-01-26T06:37:00.960Z,2.10
2019-01-26T06:39:28.197Z,2.10
2019-01-26T06:41:55.468Z,2.00
2019-01-26T06:44:22.696Z,1.80
2019-01-26T06:46:49.958Z,2.00
2019-01-26T06:49:17.228Z,1.90
2019-01-26T06:51:53.681Z,1.90
2019-01-26T06:54:21.082Z,2.00
2019-01-26T06:56:48.335Z,2.00
2019-01-26T06:59:15.796Z,2.10
2019-01-26T07:01:43.067Z,2.00
2019-01-26T07:04:12.350Z,2.00
2019-01-26T07:06:43.883Z,2.00
2019-01-26T07:09:11.107Z,1.90
2019-01-26T07:11:38.368Z,2.00
2019-01-26T07:14:05.691Z,2.00
2019-01-26T07:16:33.107Z,2.10
2019-01-26T07:19:00.361Z,1.90
2019-01-26T07:21:27.588Z,1.80
2019-01-26T07:23:54.834Z,2.00
2019-01-26T07:26:22.084Z,2.00
2019-01-26T07:28:49.340Z,2.10
2019-01-26T07:31:16.587Z,2.00
2019-01-26T07:33:43.848Z,2.00
2019-01-26T07:36:11.123Z,2.10
2019-01-26T07:38:38.356Z,2.00
2019-01-26T07:41:05.594Z,2.00
2019-01-26T07:43:32.908Z,2.10
2019-01-26T07:46:00.157Z,2.10
2019-01-26T07:48:27.400Z,2.10
2019-01-26T07:50:54.995Z,2.10
2019-01-26T07:53:22.248Z,2.20
2019-01-26T07:55:49.516Z,2.20
2019-01-26T07:58:16.770Z,2.20
2019-01-26T08:00:44.075Z,2.30
2019-01-26T08:03:11.375Z,2.20
2019-01-26T08:05:38.724Z,2.20
2019-01-26T08:08:05.996Z,2.10
2019-01-26T08:10:33.519Z,2.20
2019-01-26T08:13:00.777Z,2.30
2019-01-26T08:15:30.574Z,2.40
2019-01-26T08:17:57.826Z,2.40
2019-01-26T08:20:25.094Z,2.40
2019-01-26T08:22:52.375Z,2.20
2019-01-26T08:25:19.686Z,2.40
2019-01-26T08:27:47.074Z,2.50
2019-01-26T08:30:19.307Z,2.50
2019-01-26T08:32:47.203Z,2.40
2019-01-26T08:35:14.746Z,2.50
2019-01-26T08:37:42.005Z,2.70
2019-01-26T08:40:10.885Z,2.70
2019-01-26T08:42:38.130Z,2.70
2019-01-26T08:45:07.345Z,2.60
2019-01-26T08:47:34.967Z,2.70
2019-01-26T08:50:02.317Z,2.70
2019-01-26T08:52:29.599Z,2.80
2019-01-26T08:54:56.879Z,2.80
2019-01-26T08:57:24.119Z,2.70
2019-01-26T08:59:51.375Z,2.70
2019-01-26T09:02:38.255Z,2.70
2019-01-26T09:05:07.945Z,2.70
2019-01-26T09:07:35.740Z,2.90
2019-01-26T09:10:03.657Z,2.90
2019-01-26T09:12:30.902Z,3.00
2019-01-26T09:14:58.276Z,3.10
2019-01-26T09:17:25.551Z,3.00
2019-01-26T09:19:52.847Z,3.00
2019-01-26T09:22:22.823Z,3.10
2019-01-26T09:24:50.111Z,3.20
2019-01-26T09:27:17.389Z,3.20
2019-01-26T09:29:44.638Z,3.10
2019-01-26T09:32:12.015Z,3.20
2019-01-26T09:34:39.348Z,3.30
2019-01-26T09:37:06.928Z,3.30
2019-01-26T09:39:34.257Z,3.40
2019-01-26T09:42:01.504Z,3.50
2019-01-26T09:44:28.762Z,3.50
2019-01-26T09:46:56.080Z,3.70
2019-01-26T09:49:23.327Z,3.60
2019-01-26T09:51:50.688Z,3.60
2019-01-26T09:54:17.960Z,3.50
2019-01-26T09:56:45.226Z,3.60
2019-01-26T09:59:13.671Z,3.60
2019-01-26T10:01:41.219Z,3.70
2019-01-26T10:04:08.463Z,3.60
2019-01-26T10:06:35.738Z,3.50
2019-01-26T10:09:07.859Z,3.50
2019-01-26T10:11:35.355Z,3.40
2019-01-26T10:14:06.009Z,3.50
2019-01-26T10:16:34.063Z,3.50
2019-01-26T10:19:01.363Z,3.50
2019-01-26T10:21:28.682Z,3.50
2019-01-26T10:23:56.135Z,3.60
2019-01-26T10:26:23.581Z,3.50
2019-01-26T10:28:50.907Z,3.50
2019-01-26T10:31:19.236Z,3.60
2019-01-26T10:33:46.749Z,3.60
2019-01-26T10:36:22.714Z,3.60
2019-01-26T10:39:00.414Z,3.70
2019-01-26T10:41:53.481Z,3.70
2019-01-26T10:44:24.346Z,3.70
2019-01-26T10:46:51.562Z,3.80
2019-01-26T10:49:18.852Z,3.80
2019-01-26T10:51:46.160Z,4.00
2019-01-26T10:54:13.438Z,3.80
2019-01-26T10:56:40.772Z,3.80
2019-01-26T10:59:08.056Z,4.00
2019-01-26T11:01:36.091Z,4.00
2019-01-26T11:04:03.640Z,4.00
2019-01-26T11:06:32.303Z,4.00
2019-01-26T11:08:59.592Z,3.90
2019-01-26T11:11:26.846Z,3.90
2019-01-26T11:13:54.098Z,3.90
2019-01-26T11:16:21.364Z,4.00
2019-01-26T11:18:48.619Z,4.00
2019-01-26T11:21:16.352Z,4.00
2019-01-26T11:23:44.056Z,4.00
2019-01-26T11:26:11.289Z,4.00
2019-01-26T11:28:38.564Z,4.00
2019-01-26T11:31:06.096Z,4.20
2019-01-26T11:33:34.391Z,4.10
2019-01-26T11:36:01.792Z,4.10
2019-01-26T11:38:29.070Z,4.10
2019-01-26T11:40:56.407Z,4.10
2019-01-26T11:43:23.707Z,4.10
2019-01-26T11:46:28.514Z,4.10
2019-01-26T11:48:56.967Z,4.00
2019-01-26T11:51:32.788Z,4.10
2019-01-26T11:54:00.011Z,4.20
2019-01-26T11:56:52.829Z,4.30
2019-01-26T11:59:20.140Z,4.30
2019-01-26T12:02:15.478Z,4.30
2019-01-26T12:04:58.342Z,4.40
2019-01-26T12:10:33.011Z,4.40
2019-01-26T12:13:00.391Z,4.40
2019-01-26T12:22:33.172Z,4.40
2019-01-26T12:25:26.627Z,4.40
2019-01-26T12:28:02.008Z,4.40
2019-01-26T12:37:56.062Z,4.70
2019-01-26T12:40:29.924Z,5.20
2019-01-26T12:46:02.032Z,5.60
2019-01-26T12:48:49.372Z,5.80
2019-01-26T12:51:16.742Z,6.10
2019-01-26T12:56:53.269Z,6.10
2019-01-26T12:59:20.897Z,6.10
2019-01-26T13:04:55.227Z,6.10
2019-01-26T13:07:50.925Z,6.20
2019-01-26T13:10:45.018Z,6.40
2019-01-26T13:13:21.181Z,6.40
2019-01-26T13:15:52.039Z,6.20
2019-01-26T13:18:49.341Z,6.20
2019-01-26T13:21:53.199Z,6.20
2019-01-26T13:28:12.411Z,6.20
2019-01-26T13:34:03.101Z,5.90
2019-01-26T13:37:24.574Z,5.60
2019-01-26T13:43:03.835Z,5.40
2019-01-26T13:45:35.131Z,5.40
2019-01-26T13:48:06.973Z,5.20
2019-01-26T13:51:00.071Z,5.10
2019-01-26T13:53:53.189Z,5.00
2019-01-26T13:56:34.193Z,5.10
2019-01-26T13:59:12.689Z,5.00
2019-01-26T14:01:53.805Z,4.90
2019-01-26T14:04:38.910Z,4.90
2019-01-26T14:07:13.196Z,4.90
2019-01-26T14:13:19.068Z,4.90
2019-01-26T14:16:14.051Z,4.90
2019-01-26T14:19:06.944Z,4.80
2019-01-26T14:21:42.657Z,4.80
2019-01-26T14:27:37.022Z,4.80
2019-01-26T14:30:50.436Z,4.70
2019-01-26T14:33:25.990Z,4.70
2019-01-26T14:36:18.579Z,4.80
2019-01-26T14:42:00.713Z,4.80
2019-01-26T14:44:53.854Z,4.80
2019-01-26T14:50:42.041Z,5.00
2019-01-26T14:53:14.411Z,4.90
2019-01-26T14:56:15.079Z,4.80
2019-01-26T14:58:50.579Z,4.80
2019-01-26T15:01:31.969Z,4.80
2019-01-26T15:07:21.530Z,4.80
2019-01-26T15:09:49.297Z,4.90
2019-01-26T15:12:30.306Z,4.90
2019-01-26T15:14:57.540Z,4.80
2019-01-26T15:17:24.801Z,4.90
2019-01-26T15:19:52.395Z,4.80
2019-01-26T15:22:21.284Z,4.80
2019-01-26T15:24:50.335Z,4.70
2019-01-26T15:27:57.467Z,4.60
2019-01-26T15:30:34.374Z,4.70
2019-01-26T15:33:06.057Z,4.70
2019-01-26T15:35:33.405Z,4.60
2019-01-26T15:38:00.667Z,4.60
2019-01-26T15:40:27.908Z,4.70
2019-01-26T15:42:55.215Z,4.60
2019-01-26T15:45:24.911Z,4.60
2019-01-26T15:47:52.176Z,4.40
2019-01-26T15:50:19.435Z,4.50
2019-01-26T15:52:46.711Z,4.50
2019-01-26T15:55:16.009Z,4.40
2019-01-26T15:57:43.992Z,4.40
2019-01-26T16:00:16.168Z,4.50
2019-01-26T16:02:45.258Z,4.30
2019-01-26T16:05:12.591Z,4.50
2019-01-26T16:07:39.836Z,4.40
2019-01-26T16:10:08.290Z,4.30
2019-01-26T16:12:35.761Z,4.40
2019-01-26T16:15:04.870Z,4.30
2019-01-26T16:17:32.127Z,4.30
2019-01-26T16:19:59.356Z,4.20
2019-01-26T16:22:26.742Z,4.30
2019-01-26T16:24:54.012Z,4.30
2019-01-26T16:27:21.247Z,4.40
2019-01-26T16:29:48.489Z,4.40
2019-01-26T16:32:15.768Z,4.30
2019-01-26T16:34:43.091Z,4.40
2019-01-26T16:37:10.394Z,4.30
2019-01-26T16:39:37.700Z,4.40
2019-01-26T16:42:04.940Z,4.20
2019-01-26T16:44:32.248Z,4.30
2019-01-26T16:46:59.574Z,4.40
2019-01-26T16:49:26.903Z,4.30
2019-01-26T16:51:54.148Z,4.20
2019-01-26T16:54:21.404Z,4.40
2019-01-26T16:56:48.660Z,4.40
2019-01-26T16:59:16.051Z,4.30
2019-01-26T17:01:43.336Z,4.20
2019-01-26T17:04:21.542Z,4.30
2019-01-26T17:06:48.816Z,4.20
2019-01-26T17:09:16.180Z,4.20
2019-01-26T17:11:43.552Z,4.20
2019-01-26T17:14:10.788Z,4.20
2019-01-26T17:16:38.035Z,4.10
2019-01-26T17:19:05.480Z,4.10
2019-01-26T17:21:32.819Z,4.20
2019-01-26T17:24:00.058Z,4.00
2019-01-26T17:26:27.349Z,4.10
2019-01-26T17:28:54.636Z,4.10
2019-01-26T17:31:21.943Z,4.10
2019-01-26T17:33:49.247Z,4.20
2019-01-26T17:36:16.474Z,4.00
2019-01-26T17:38:43.727Z,4.10
2019-01-26T17:41:11.068Z,4.10
2019-01-26T17:43:38.355Z,4.00
2019-01-26T17:46:05.724Z,4.10
2019-01-26T17:48:33.015Z,4.00
2019-01-26T17:51:00.251Z,4.10
2019-01-26T17:53:27.546Z,4.00
2019-01-26T17:55:54.776Z,4.00
2019-01-26T17:58:22.097Z,4.20
2019-01-26T18:01:11.512Z,4.00
2019-01-26T18:06:06.146Z,4.00
2019-01-26T18:08:33.491Z,4.00
2019-01-26T18:11:00.771Z,4.10
2019-01-26T18:13:28.007Z,4.10
2019-01-26T18:15:55.280Z,4.10
2019-01-26T18:18:23.014Z,4.10
2019-01-26T18:20:50.319Z,4.10
2019-01-26T18:23:23.460Z,4.20
2019-01-26T18:25:50.947Z,4.10
2019-01-26T18:28:18.250Z,4.10
2019-01-26T18:30:45.626Z,4.10
2019-01-26T18:33:13.123Z,4.10
2019-01-26T18:35:40.486Z,4.20
2019-01-26T18:38:07.895Z,4.20
2019-01-26T18:40:35.232Z,4.20
2019-01-26T18:43:02.584Z,4.20
2019-01-26T18:45:29.950Z,4.00
2019-01-26T18:47:57.221Z,4.20
2019-01-26T18:50:26.447Z,4.10
2019-01-26T18:52:53.744Z,4.10
2019-01-26T18:55:21.139Z,4.20
2019-01-26T18:57:48.459Z,4.10
2019-01-26T19:00:27.087Z,4.20
2019-01-26T19:02:58.179Z,4.10
2019-01-26T19:05:26.383Z,4.10
2019-01-26T19:07:53.666Z,4.10
2019-01-26T19:10:20.907Z,4.10
2019-01-26T19:12:48.248Z,4.00
2019-01-26T19:15:18.502Z,3.90
2019-01-26T19:17:46.026Z,4.00
2019-01-26T19:20:13.787Z,4.10
2019-01-26T19:22:41.449Z,4.00
2019-01-26T19:25:10.627Z,4.00
2019-01-26T19:27:37.887Z,4.00
2019-01-26T19:30:05.975Z,4.10
2019-01-26T19:32:33.203Z,4.10
2019-01-26T19:35:00.507Z,4.10
2019-01-26T19:37:27.779Z,4.10
2019-01-26T19:39:55.068Z,4.00
2019-01-26T19:42:22.303Z,4.00
2019-01-26T19:44:49.555Z,3.90
2019-01-26T19:47:16.796Z,4.00
2019-01-26T19:49:44.031Z,4.00
2019-01-26T19:52:11.294Z,3.90
2019-01-26T19:54:38.547Z,4.00
2019-01-26T19:57:05.843Z,4.00
2019-01-26T19:59:33.119Z,4.00
2019-01-26T20:02:00.714Z,4.10
2019-01-26T20:04:28.012Z,4.00
2019-01-26T20:06:55.360Z,4.10
2019-01-26T20:09:22.734Z,4.10
2019-01-26T20:11:50.145Z,4.00
2019-01-26T20:14:17.376Z,4.00
2019-01-26T20:16:45.279Z,4.00
2019-01-26T20:19:12.665Z,4.00
2019-01-26T20:21:40.221Z,4.00
2019-01-26T20:24:07.731Z,4.10
2019-01-26T20:26:35.153Z,4.20
2019-01-26T20:29:03.038Z,4.30
2019-01-26T20:31:30.871Z,4.30
2019-01-26T20:33:58.328Z,4.30
2019-01-26T20:36:25.677Z,4.40
2019-01-26T20:38:55.603Z,4.20
2019-01-26T20:41:22.867Z,4.30
2019-01-26T20:43:50.524Z,4.40
2019-01-26T20:46:18.112Z,4.30
2019-01-26T20:48:45.522Z,4.20
2019-01-26T20:51:13.148Z,4.30
2019-01-26T20:53:40.447Z,4.20
2019-01-26T20:56:07.712Z,4.30
2019-01-26T20:58:35.324Z,4.30
2019-01-26T21:01:02.784Z,4.20
2019-01-26T21:03:30.995Z,4.20
2019-01-26T21:05:58.516Z,4.20
2019-01-26T21:08:26.312Z,4.10
2019-01-26T21:10:53.981Z,4.10
2019-01-26T21:13:21.845Z,4.20
2019-01-26T21:15:49.473Z,4.10
2019-01-26T21:18:17.396Z,4.20
2019-01-26T21:20:45.022Z,4.20
2019-01-26T21:23:12.886Z,4.20
2019-01-26T21:25:40.217Z,4.10
2019-01-26T21:28:08.181Z,4.20
2019-01-26T21:30:35.503Z,4.10
2019-01-26T21:33:02.796Z,4.20
2019-01-26T21:35:31.665Z,4.20
2019-01-26T21:37:59.034Z,4.20
2019-01-26T21:40:30.548Z,4.20
2019-01-26T21:42:58.762Z,4.10
2019-01-26T21:45:26.280Z,4.30
2019-01-26T21:47:53.572Z,4.30
2019-01-26T21:50:23.063Z,4.20
2019-01-26T21:52:51.278Z,4.30
2019-01-26T21:55:18.662Z,4.40
2019-01-26T21:57:47.048Z,4.30
2019-01-26T22:00:19.602Z,4.30
2019-01-26T22:02:46.975Z,4.30
2019-01-26T22:05:14.730Z,4.30
2019-01-26T22:07:42.092Z,4.20
2019-01-26T22:10:11.544Z,4.20
2019-01-26T22:12:38.818Z,4.30
2019-01-26T22:15:07.924Z,4.30
2019-01-26T22:17:35.299Z,4.20
2019-01-26T22:20:04.600Z,4.20
2019-01-26T22:22:31.951Z,4.40
2019-01-26T22:24:59.490Z,4.30
2019-01-26T22:27:26.929Z,4.20
2019-01-26T22:29:54.461Z,4.20
2019-01-26T22:32:21.868Z,4.30
2019-01-26T22:34:49.464Z,4.20
2019-01-26T22:37:36.982Z,4.30
2019-01-26T22:40:07.382Z,4.30
2019-01-26T22:42:34.924Z,4.30
2019-01-26T22:45:02.562Z,4.20
2019-01-26T22:47:30.152Z,4.10
2019-01-26T22:49:57.881Z,4.30
2019-01-26T22:52:25.646Z,4.40
2019-01-26T22:54:52.964Z,4.40
2019-01-26T22:57:20.457Z,4.40
2019-01-26T22:59:48.144Z,4.30
2019-01-26T23:02:16.252Z,4.20
2019-01-26T23:05:16.917Z,4.30
2019-01-26T23:07:57.506Z,4.30
2019-01-26T23:11:09.050Z,4.30
2019-01-26T23:14:10.429Z,4.10
2019-01-26T23:17:22.059Z,4.10
2019-01-26T23:20:09.439Z,4.10
2019-01-26T23:23:21.005Z,4.10
2019-01-26T23:25:59.003Z,4.10
2019-01-26T23:29:06.982Z,4.30
2019-01-26T23:31:35.547Z,4.20
2019-01-26T23:34:03.449Z,4.20
2019-01-26T23:36:31.103Z,4.20
2019-01-26T23:39:02.476Z,4.30
2019-01-26T23:41:29.950Z,4.30
2019-01-26T23:43:58.040Z,4.20
2019-01-26T23:46:26.285Z,4.20
2019-01-26T23:49:01.419Z,4.20
2019-01-26T23:51:31.478Z,4.30
2019-01-26T23:54:01.055Z,4.30
2019-01-26T23:56:29.014Z,4.20
2019-01-26T23:58:56.687Z,4.30
